Time;durP1;ratioP1;P1;durP2;ratioP2;P2;SDS_P1;SDS_P2;PMS_P1;PMS_P2;Temp;Humidity;BMP_temperature;BMP_pressure;BME280_temperature;BME280_humidity;BME280_pressure;Samples;Min_cycle;Max_cycle;Signal;HPM_P1;HPM_P2
2021/12/08 00:02:21;;;;;;;8.80;4.00;;;5.80;99.90;;;;;;6248909;22;20012;-83
2021/12/08 00:04:46;;;;;;;8.32;3.63;;;5.00;99.90;;;;;;6223754;22;20024;-83
2021/12/08 00:07:12;;;;;;;8.75;3.95;;;7.70;99.90;;;;;;6248756;22;20023;-83
2021/12/08 00:10:00;;;;;;;6.28;3.97;;;6.80;99.90;;;;;;6248498;22;20012;-83
2021/12/08 00:15:10;;;;;;;8.00;4.75;;;11.00;99.90;;;;;;6248929;22;20469;-83
2021/12/08 00:17:35;;;;;;;7.22;4.32;;;8.80;99.90;;;;;;6223679;22;20046;-83
2021/12/08 00:20:04;;;;;;;11.18;4.88;;;9.60;99.90;;;;;;6248975;22;20054;-84
2021/12/08 00:22:29;;;;;;;9.52;4.55;;;6.90;99.90;;;;;;6276341;22;20346;-83
2021/12/08 00:24:55;;;;;;;8.57;5.28;;;10.70;99.90;;;;;;6223181;22;20020;-83
2021/12/08 00:27:21;;;;;;;8.15;4.15;;;10.70;99.90;;;;;;6248441;22;20102;-83
2021/12/08 00:29:47;;;;;;;8.50;4.53;;;9.50;99.90;;;;;;6223582;22;20026;-84
2021/12/08 00:32:13;;;;;;;7.18;4.50;;;6.30;99.90;;;;;;6248333;22;20016;-83
2021/12/08 00:34:39;;;;;;;6.97;4.30;;;10.20;99.90;;;;;;6248093;22;20122;-83
2021/12/08 00:37:05;;;;;;;9.45;4.82;;;7.50;99.90;;;;;;6247626;22;20023;-84
2021/12/08 00:39:31;;;;;;;9.25;4.43;;;5.40;99.90;;;;;;6248344;22;20031;-83
2021/12/08 00:41:57;;;;;;;8.27;4.82;;;8.90;99.90;;;;;;6248446;22;20019;-83
2021/12/08 00:44:23;;;;;;;10.38;4.80;;;9.90;99.90;;;;;;6242669;22;20100;-83
2021/12/08 00:46:49;;;;;;;8.07;3.65;;;11.10;99.90;;;;;;6253537;22;20025;-84
2021/12/08 00:49:16;;;;;;;6.35;3.30;;;11.20;99.90;;;;;;6253042;22;20017;-83
2021/12/08 00:51:42;;;;;;;7.25;4.05;;;8.90;99.90;;;;;;6253225;22;20009;-84
2021/12/08 00:54:08;;;;;;;6.88;4.03;;;9.80;99.90;;;;;;6254213;22;20386;-83
2021/12/08 00:56:33;;;;;;;6.03;4.20;;;5.60;99.90;;;;;;6255084;22;20017;-83
2021/12/08 00:58:59;;;;;;;7.60;4.20;;;7.20;99.90;;;;;;6254660;22;20013;-83
2021/12/08 01:01:25;;;;;;;7.07;4.15;;;8.70;99.90;;;;;;6255173;22;20021;-84
2021/12/08 01:03:51;;;;;;;7.32;4.15;;;6.40;99.90;;;;;;6255206;22;20021;-84
2021/12/08 01:06:17;;;;;;;8.13;4.07;;;10.60;99.90;;;;;;6255275;22;20513;-83
2021/12/08 01:08:44;;;;;;;10.15;4.40;;;8.60;99.90;;;;;;6255148;22;20096;-83
2021/12/08 01:11:13;;;;;;;10.32;4.93;;;5.30;99.90;;;;;;6254954;22;20014;-83
2021/12/08 01:13:40;;;;;;;62.83;7.10;;;8.00;99.90;;;;;;6254645;22;20025;-83
2021/12/08 01:16:06;;;;;;;9.10;4.97;;;9.90;99.90;;;;;;6255090;22;20021;-83
2021/12/08 01:18:35;;;;;;;5.95;3.97;;;6.40;99.90;;;;;;6254372;22;20083;-83
2021/12/08 01:21:04;;;;;;;10.07;4.40;;;6.50;99.90;;;;;;6254533;22;20049;-83
2021/12/08 01:23:30;;;;;;;7.15;3.75;;;7.60;99.90;;;;;;6254626;22;20013;-83
2021/12/08 01:25:57;;;;;;;4.13;3.20;;;6.60;99.90;;;;;;6254529;22;20021;-83
2021/12/08 01:28:24;;;;;;;8.25;3.75;;;9.00;99.90;;;;;;6254731;22;20014;-83
2021/12/08 01:30:52;;;;;;;9.23;4.55;;;8.40;99.90;;;;;;6254566;22;20013;-83
2021/12/08 01:33:19;;;;;;;5.22;3.58;;;8.90;99.90;;;;;;6254894;22;20028;-83
2021/12/08 01:35:45;;;;;;;5.57;3.85;;;9.00;99.90;;;;;;6254769;22;20017;-83
2021/12/08 01:38:11;;;;;;;5.85;3.72;;;9.10;99.90;;;;;;6254899;22;20359;-83
2021/12/08 01:40:37;;;;;;;7.03;4.28;;;6.50;99.90;;;;;;6254651;22;20016;-83
2021/12/08 01:43:04;;;;;;;11.80;4.43;;;10.20;99.90;;;;;;6260291;22;20013;-83
2021/12/08 01:48:18;;;;;;;9.88;4.28;;;7.20;99.90;;;;;;6279898;22;20357;-84
2021/12/08 01:50:47;;;;;;;7.65;4.82;;;11.10;99.90;;;;;;6280452;22;20065;-84
2021/12/08 01:53:14;;;;;;;9.70;5.07;;;6.70;99.90;;;;;;6280196;22;20023;-83
2021/12/08 01:55:41;;;;;;;6.95;4.30;;;11.20;99.90;;;;;;6280765;22;20015;-83
2021/12/08 01:58:08;;;;;;;7.82;4.75;;;9.00;99.90;;;;;;6254502;22;20015;-84
2021/12/08 02:00:40;;;;;;;7.85;4.70;;;9.50;99.90;;;;;;6280455;22;20022;-84
2021/12/08 02:03:06;;;;;;;5.53;4.72;;;9.60;99.90;;;;;;6280694;22;20012;-83
2021/12/08 02:05:32;;;;;;;9.05;4.47;;;9.40;99.90;;;;;;6254634;22;20026;-84
2021/12/08 02:07:58;;;;;;;6.75;4.47;;;9.90;99.90;;;;;;6279956;22;20007;-83
2021/12/08 02:10:24;;;;;;;10.05;4.05;;;6.90;99.90;;;;;;6279841;22;20459;-83
2021/12/08 02:12:51;;;;;;;7.82;4.57;;;6.90;99.90;;;;;;6280069;22;20109;-83
2021/12/08 02:15:18;;;;;;;9.30;5.40;;;8.50;99.90;;;;;;6254832;22;20015;-83
2021/12/08 02:17:47;;;;;;;7.32;4.53;;;10.50;99.90;;;;;;6279716;22;20019;-83
2021/12/08 02:20:14;;;;;;;12.13;5.30;;;12.00;99.90;;;;;;6279996;22;20007;-84
2021/12/08 02:22:41;;;;;;;6.22;4.03;;;6.10;99.90;;;;;;6254652;22;20046;-83
2021/12/08 02:25:09;;;;;;;11.55;5.03;;;8.50;99.90;;;;;;6280224;22;20064;-84
2021/12/08 02:27:35;;;;;;;9.35;4.65;;;9.40;99.90;;;;;;6280174;22;20015;-83
2021/12/08 02:30:14;;;;;;;5.95;4.45;;;9.60;99.90;;;;;;6279993;22;20019;-84
2021/12/08 02:48:55;;;;;;;12.57;5.78;;;6.50;99.90;;;;;;6254570;22;20406;-83
2021/12/08 02:51:20;;;;;;;9.23;5.47;;;9.90;99.90;;;;;;6254466;22;20018;-83
2021/12/08 02:53:47;;;;;;;12.60;4.93;;;6.30;99.90;;;;;;6252747;22;20348;-83
2021/12/08 02:56:15;;;;;;;13.40;5.88;;;10.10;99.90;;;;;;6254073;22;20021;-83
2021/12/08 02:58:40;;;;;;;9.68;6.53;;;10.60;99.90;;;;;;6254026;22;20415;-83
2021/12/08 03:01:08;;;;;;;9.32;5.50;;;6.90;99.90;;;;;;6254137;22;20017;-83
2021/12/08 03:03:34;;;;;;;10.30;5.78;;;8.30;99.90;;;;;;6254496;22;20052;-83
2021/12/08 03:06:00;;;;;;;8.48;4.80;;;11.20;99.90;;;;;;6254531;22;20340;-84
2021/12/08 03:08:26;;;;;;;7.95;5.22;;;6.00;99.90;;;;;;6254073;22;20018;-83
2021/12/08 03:10:52;;;;;;;16.38;6.75;;;10.00;99.90;;;;;;6254488;22;20317;-83
2021/12/08 03:13:27;;;;;;;9.02;4.97;;;10.40;99.90;;;;;;6228520;23;20028;-83
2021/12/08 03:15:53;;;;;;;8.27;4.93;;;6.90;99.90;;;;;;6253960;22;20013;-84
2021/12/08 03:18:19;;;;;;;8.75;5.22;;;12.00;99.90;;;;;;6253409;22;20020;-83
2021/12/08 03:20:46;;;;;;;7.68;4.78;;;10.30;99.90;;;;;;6253954;22;20010;-84
2021/12/08 03:23:17;;;;;;;7.22;5.13;;;6.70;99.90;;;;;;6254445;22;20082;-84
2021/12/08 03:25:53;;;;;;;10.57;5.53;;;6.90;99.90;;;;;;6253766;22;20110;-83
2021/12/08 03:28:26;;;;;;;9.10;5.18;;;9.40;99.90;;;;;;6253712;22;20013;-83
2021/12/08 03:31:00;;;;;;;7.80;5.43;;;7.70;99.90;;;;;;6254011;22;20382;-84
2021/12/08 03:33:27;;;;;;;12.95;5.85;;;9.80;99.90;;;;;;6253523;22;20010;-83
2021/12/08 03:35:53;;;;;;;9.93;6.47;;;9.30;99.90;;;;;;6253979;22;20053;-83
2021/12/08 03:38:19;;;;;;;8.70;5.07;;;9.60;99.90;;;;;;6253687;22;20056;-83
2021/12/08 03:40:48;;;;;;;10.05;5.97;;;9.00;99.90;;;;;;6253722;22;20052;-83
2021/12/08 03:43:14;;;;;;;9.25;5.40;;;10.80;99.90;;;;;;6269413;22;20512;-84
2021/12/08 03:45:44;;;;;;;9.15;5.68;;;11.20;99.90;;;;;;6279908;22;20064;-83
2021/12/08 03:48:15;;;;;;;5.10;4.32;;;10.80;99.90;;;;;;6279713;22;20030;-84
2021/12/08 03:50:43;;;;;;;7.05;4.78;;;7.30;99.90;;;;;;6279809;22;20030;-83
2021/12/08 03:53:12;;;;;;;6.88;5.53;;;7.40;99.90;;;;;;6280231;22;20007;-83
2021/12/08 03:55:40;;;;;;;7.68;5.25;;;9.90;99.90;;;;;;6279115;22;20015;-83
2021/12/08 03:58:05;;;;;;;6.88;4.43;;;8.50;99.90;;;;;;6254237;22;20449;-83
2021/12/08 04:00:34;;;;;;;7.15;4.80;;;6.80;99.90;;;;;;6279157;22;20102;-84
2021/12/08 04:03:03;;;;;;;9.32;6.38;;;10.00;99.90;;;;;;6278557;22;20015;-83
2021/12/08 04:05:54;;;;;;;7.72;4.95;;;8.60;99.90;;;;;;6279683;22;20082;-83
2021/12/08 04:08:32;;;;;;;7.32;5.10;;;12.40;99.90;;;;;;6279494;22;20026;-83
2021/12/08 04:11:03;;;;;;;10.63;6.70;;;10.90;99.90;;;;;;6253484;22;20027;-83
2021/12/08 04:13:40;;;;;;;11.27;6.80;;;7.00;99.90;;;;;;6279208;22;20012;-83
2021/12/08 04:16:08;;;;;;;11.55;5.55;;;12.00;99.90;;;;;;6279798;22;20022;-84
2021/12/08 04:18:34;;;;;;;8.65;5.40;;;9.90;99.90;;;;;;6279447;22;20376;-83
2021/12/08 04:21:01;;;;;;;12.25;6.20;;;9.90;99.90;;;;;;6279630;22;20089;-84
2021/12/08 04:23:35;;;;;;;8.82;5.18;;;9.80;99.90;;;;;;6254321;22;20007;-83
2021/12/08 04:26:03;;;;;;;10.50;6.90;;;10.20;99.90;;;;;;6279796;22;20384;-83
2021/12/08 04:28:33;;;;;;;16.73;7.40;;;7.00;99.90;;;;;;6254543;22;20715;-84
2021/12/08 04:31:11;;;;;;;10.13;6.18;;;9.00;99.90;;;;;;6281284;22;20086;-84
2021/12/08 04:33:37;;;;;;;11.63;6.15;;;6.10;99.90;;;;;;6281544;22;20016;-84
2021/12/08 04:36:07;;;;;;;8.68;5.22;;;10.50;99.90;;;;;;6281883;22;20017;-84
2021/12/08 04:38:38;;;;;;;13.05;7.47;;;6.90;99.90;;;;;;6255981;22;20094;-83
2021/12/08 04:41:10;;;;;;;12.60;7.85;;;10.10;99.90;;;;;;6255596;22;20076;-83
2021/12/08 04:43:56;;;;;;;13.45;6.93;;;9.80;99.90;;;;;;6254454;22;20076;-84
2021/12/08 04:51:41;;;;;;;13.38;5.85;;;10.50;99.90;;;;;;6255392;22;20017;-83
2021/12/08 05:03:02;;;;;;;9.40;5.13;;;9.80;99.90;;;;;;6255414;22;20029;-83
2021/12/08 05:05:48;;;;;;;10.98;5.03;;;6.90;99.90;;;;;;6254768;22;20088;-84
2021/12/08 05:08:21;;;;;;;5.97;4.22;;;9.60;99.90;;;;;;6255158;22;20032;-84
2021/12/08 05:10:49;;;;;;;9.98;5.60;;;11.50;99.90;;;;;;6253564;22;20013;-84
2021/12/08 05:13:16;;;;;;;13.02;4.82;;;10.60;99.90;;;;;;6254327;22;20025;-84
2021/12/08 05:15:44;;;;;;;11.52;6.03;;;10.60;99.90;;;;;;6254310;22;20018;-84
2021/12/08 05:18:15;;;;;;;7.80;4.63;;;7.00;99.90;;;;;;6254606;22;20024;-84
2021/12/08 05:21:04;;;;;;;7.97;5.50;;;9.30;99.90;;;;;;6254899;22;20521;-84
2021/12/08 05:23:38;;;;;;;6.00;4.22;;;9.40;99.90;;;;;;6255001;22;20014;-84
2021/12/08 05:26:11;;;;;;;7.70;4.43;;;7.90;99.90;;;;;;6254817;22;20060;-84
2021/12/08 05:28:41;;;;;;;10.98;4.22;;;8.90;99.90;;;;;;6254923;22;20096;-84
2021/12/08 05:31:14;;;;;;;7.90;4.35;;;7.60;99.90;;;;;;6254884;22;20025;-84
2021/12/08 05:33:42;;;;;;;5.40;4.32;;;10.10;99.90;;;;;;6255049;22;20029;-84
2021/12/08 05:36:09;;;;;;;5.85;3.97;;;9.70;99.90;;;;;;6255057;22;20297;-83
2021/12/08 05:38:36;;;;;;;6.80;4.00;;;7.40;99.90;;;;;;6254678;22;20092;-84
2021/12/08 05:41:09;;;;;;;5.57;3.38;;;7.90;99.90;;;;;;6254091;22;20045;-84
2021/12/08 05:43:38;;;;;;;6.97;4.10;;;6.60;99.90;;;;;;6279440;22;20087;-83
2021/12/08 05:46:05;;;;;;;7.90;5.05;;;10.00;99.90;;;;;;6250168;22;20068;-84
2021/12/08 05:48:33;;;;;;;8.15;4.28;;;6.20;99.90;;;;;;6249535;22;20038;-84
2021/12/08 05:51:06;;;;;;;7.65;4.32;;;10.10;99.90;;;;;;6249606;22;20111;-84
2021/12/08 05:53:33;;;;;;;10.93;5.07;;;10.40;99.90;;;;;;6223356;22;20476;-84
2021/12/08 05:55:59;;;;;;;16.25;5.57;;;7.30;99.90;;;;;;6250287;22;20453;-84
2021/12/08 05:58:27;;;;;;;11.90;5.20;;;7.70;99.90;;;;;;6224671;22;20022;-84
2021/12/08 06:00:59;;;;;;;11.88;4.50;;;8.90;99.90;;;;;;6224419;22;20014;-84
2021/12/08 06:03:26;;;;;;;7.82;4.03;;;8.20;99.90;;;;;;6249412;22;20316;-84
2021/12/08 06:05:54;;;;;;;9.02;4.07;;;10.60;99.90;;;;;;6249709;22;20069;-84
2021/12/08 06:08:20;;;;;;;10.63;4.70;;;8.20;99.90;;;;;;6249862;22;20043;-84
2021/12/08 06:10:47;;;;;;;10.07;5.18;;;9.30;99.90;;;;;;6277087;22;20345;-84
2021/12/08 06:13:15;;;;;;;7.50;3.88;;;7.90;99.90;;;;;;6249027;22;20022;-84
2021/12/08 06:15:44;;;;;;;16.60;5.88;;;12.30;99.90;;;;;;6249677;22;20015;-84
2021/12/08 06:18:10;;;;;;;9.80;4.78;;;7.20;99.90;;;;;;6223505;22;20055;-84
2021/12/08 06:20:37;;;;;;;16.75;4.97;;;7.70;99.90;;;;;;6248763;22;20019;-84
2021/12/08 06:23:06;;;;;;;9.80;3.80;;;9.00;99.90;;;;;;6249750;22;20086;-84
2021/12/08 06:25:33;;;;;;;8.27;3.80;;;8.80;99.90;;;;;;6249720;22;20146;-84
2021/12/08 06:27:59;;;;;;;14.23;4.82;;;9.50;99.90;;;;;;6249742;22;20008;-84
2021/12/08 06:30:28;;;;;;;7.05;4.22;;;9.10;99.90;;;;;;6249284;22;20382;-84
2021/12/08 06:32:55;;;;;;;27.45;5.40;;;9.40;99.90;;;;;;6249500;22;20015;-83
2021/12/08 06:35:28;;;;;;;15.82;5.53;;;8.90;99.90;;;;;;6249196;22;20019;-84
2021/12/08 06:37:56;;;;;;;15.00;4.95;;;9.50;99.90;;;;;;6249492;22;20027;-84
2021/12/08 06:40:31;;;;;;;9.30;4.88;;;8.50;99.90;;;;;;6249858;22;20015;-84
2021/12/08 06:43:01;;;;;;;8.00;4.15;;;8.30;99.90;;;;;;6249678;22;20016;-84
2021/12/08 06:45:31;;;;;;;10.75;4.88;;;9.40;99.90;;;;;;6245936;22;20359;-84
2021/12/08 06:48:00;;;;;;;13.05;4.53;;;8.70;99.90;;;;;;6229193;23;20021;-84
2021/12/08 06:50:33;;;;;;;14.55;4.75;;;9.20;99.90;;;;;;6229475;23;20031;-84
2021/12/08 06:52:59;;;;;;;13.73;5.05;;;8.70;99.90;;;;;;6254827;22;20362;-83
2021/12/08 06:55:29;;;;;;;8.27;3.70;;;9.80;99.90;;;;;;6229196;22;20060;-83
2021/12/08 06:58:01;;;;;;;13.02;4.63;;;10.90;99.90;;;;;;6254745;22;20056;-84
2021/12/08 07:00:47;;;;;;;10.45;4.05;;;10.70;99.90;;;;;;6254455;22;20018;-84
2021/12/08 07:03:32;;;;;;;11.85;4.07;;;10.20;99.90;;;;;;6254579;22;20021;-84
2021/12/08 07:08:36;;;;;;;11.38;3.63;;;10.20;99.90;;;;;;6254799;22;20374;-83
2021/12/08 07:11:04;;;;;;;8.73;4.35;;;8.80;99.90;;;;;;6254607;22;20071;-83
2021/12/08 07:13:32;;;;;;;8.90;3.22;;;9.60;99.90;;;;;;6254008;22;20021;-83
2021/12/08 07:16:05;;;;;;;6.65;3.58;;;8.20;99.90;;;;;;6255068;22;20029;-83
2021/12/08 07:18:43;;;;;;;10.00;3.53;;;9.10;99.90;;;;;;6254535;22;20032;-83
2021/12/08 07:21:13;;;;;;;10.85;3.80;;;7.90;99.90;;;;;;6253831;22;20092;-83
2021/12/08 07:23:49;;;;;;;10.60;3.42;;;8.30;99.90;;;;;;6228913;23;20659;-83
2021/12/08 07:26:19;;;;;;;7.60;2.95;;;9.10;99.90;;;;;;6254163;22;20082;-83
2021/12/08 07:28:46;;;;;;;8.35;3.70;;;8.50;99.90;;;;;;6252094;22;20097;-83
2021/12/08 07:31:20;;;;;;;8.77;3.55;;;9.50;99.90;;;;;;6228910;23;20020;-83
2021/12/08 07:33:47;;;;;;;11.35;3.85;;;8.70;99.90;;;;;;6254093;22;20020;-84
2021/12/08 07:36:17;;;;;;;3.83;2.83;;;10.00;99.90;;;;;;6254586;22;20088;-85
2021/12/08 07:38:47;;;;;;;9.95;3.85;;;9.10;99.90;;;;;;6253944;22;20057;-85
2021/12/08 07:41:22;;;;;;;12.07;3.30;;;8.30;99.90;;;;;;6228787;23;20021;-85
2021/12/08 07:43:53;;;;;;;8.45;3.03;;;8.30;99.90;;;;;;6264637;22;20053;-85
2021/12/08 07:46:23;;;;;;;7.13;3.65;;;8.10;99.90;;;;;;6280120;22;20038;-84
2021/12/08 07:48:54;;;;;;;9.50;3.00;;;10.20;99.90;;;;;;6254434;22;20016;-84
2021/12/08 07:51:26;;;;;;;6.97;3.17;;;9.90;99.90;;;;;;6279507;22;20034;-84
2021/12/08 07:53:52;;;;;;;11.98;3.17;;;8.00;99.90;;;;;;6277596;22;20030;-83
2021/12/08 07:56:21;;;;;;;9.00;3.00;;;9.30;99.90;;;;;;6307422;22;20019;-83
2021/12/08 07:58:52;;;;;;;7.18;3.47;;;9.40;99.90;;;;;;6307134;22;20386;-84
2021/12/08 08:01:22;;;;;;;10.50;3.28;;;8.30;99.90;;;;;;6279683;22;20016;-84
2021/12/08 08:03:50;;;;;;;12.75;3.67;;;7.60;99.90;;;;;;6307217;22;20037;-84
2021/12/08 08:06:23;;;;;;;11.20;2.92;;;7.70;99.90;;;;;;6280339;22;20089;-85
2021/12/08 08:08:50;;;;;;;10.05;3.17;;;7.60;99.90;;;;;;6279696;22;20015;-83
2021/12/08 08:11:21;;;;;;;7.53;2.72;;;8.60;99.90;;;;;;6278053;22;20042;-83
2021/12/08 08:13:47;;;;;;;6.45;3.03;;;7.50;99.90;;;;;;6277056;22;20041;-84
2021/12/08 08:16:17;;;;;;;6.53;2.22;;;7.30;99.90;;;;;;6276898;22;20101;-83
2021/12/08 08:18:51;;;;;;;3.05;1.95;;;7.20;99.90;;;;;;6276002;22;20043;-83
2021/12/08 08:21:20;;;;;;;6.90;3.05;;;7.50;99.90;;;;;;6302086;22;20049;-83
2021/12/08 08:23:47;;;;;;;8.90;2.53;;;8.30;99.90;;;;;;6277299;22;20076;-83
2021/12/08 08:26:14;;;;;;;5.50;2.17;;;7.60;99.90;;;;;;6274292;22;20012;-83
2021/12/08 08:28:44;;;;;;;8.75;3.03;;;8.20;99.90;;;;;;6275359;22;20069;-83
2021/12/08 08:31:17;;;;;;;7.78;2.95;;;8.80;99.90;;;;;;6251238;22;20545;-83
2021/12/08 08:33:45;;;;;;;7.80;2.75;;;7.70;99.90;;;;;;6251017;22;20090;-83
2021/12/08 08:36:17;;;;;;;8.68;2.70;;;8.90;99.90;;;;;;6278499;22;20026;-83
2021/12/08 08:38:54;;;;;;;6.75;2.42;;;7.80;99.90;;;;;;6278980;22;20022;-83
2021/12/08 08:41:28;;;;;;;11.15;2.90;;;7.40;99.90;;;;;;6279195;22;20015;-83
2021/12/08 08:43:57;;;;;;;10.52;3.10;;;7.60;99.90;;;;;;6278340;22;20022;-83
2021/12/08 08:46:28;;;;;;;9.63;2.63;;;7.40;99.90;;;;;;6305193;22;20015;-84
2021/12/08 08:48:58;;;;;;;8.20;2.58;;;8.20;99.90;;;;;;6278973;22;20015;-83
2021/12/08 08:51:38;;;;;;;9.43;2.88;;;7.70;99.90;;;;;;6252995;22;20014;-84
2021/12/08 08:54:09;;;;;;;9.23;3.50;;;7.80;99.90;;;;;;6276884;22;20125;-84
2021/12/08 08:57:06;;;;;;;6.65;2.53;;;8.70;99.90;;;;;;6284979;22;20249;-84
2021/12/08 08:59:40;;;;;;;8.65;2.65;;;7.90;99.90;;;;;;6279246;22;20019;-84
2021/12/08 09:02:09;;;;;;;14.00;2.70;;;7.40;99.90;;;;;;6279343;22;20022;-84
2021/12/08 09:04:41;;;;;;;11.25;3.15;;;7.90;99.90;;;;;;6253815;22;20314;-85
2021/12/08 09:07:12;;;;;;;8.57;2.63;;;7.30;99.90;;;;;;6253103;22;20015;-82
2021/12/08 09:09:49;;;;;;;10.35;2.47;;;9.10;99.90;;;;;;6279372;22;20326;-83
2021/12/08 09:12:22;;;;;;;10.32;3.05;;;7.00;99.90;;;;;;6279763;22;20011;-83
2021/12/08 09:14:54;;;;;;;8.05;2.80;;;7.80;99.90;;;;;;6279280;22;20015;-83
2021/12/08 09:17:27;;;;;;;11.05;2.83;;;7.00;99.90;;;;;;6281097;22;20057;-83
2021/12/08 09:20:04;;;;;;;8.20;2.63;;;7.00;99.90;;;;;;6280697;22;20057;-83
2021/12/08 09:22:37;;;;;;;8.50;2.17;;;7.40;99.90;;;;;;6281472;22;20333;-83
2021/12/08 09:25:16;;;;;;;20.70;3.90;;;7.60;99.90;;;;;;6280544;22;20026;-83
2021/12/08 09:27:46;;;;;;;14.32;2.72;;;7.70;99.90;;;;;;6280231;22;20015;-82
2021/12/08 09:30:18;;;;;;;6.82;2.50;;;9.50;99.90;;;;;;6280420;22;20015;-82
2021/12/08 09:32:50;;;;;;;14.20;3.45;;;7.40;99.90;;;;;;6280247;22;20322;-82
2021/12/08 09:35:22;;;;;;;12.02;3.17;;;9.30;99.90;;;;;;6279296;22;20012;-83
2021/12/08 09:37:54;;;;;;;8.35;3.10;;;7.30;99.90;;;;;;6280420;22;20047;-82
2021/12/08 09:40:33;;;;;;;11.25;3.30;;;9.00;99.90;;;;;;6307524;22;20019;-81
2021/12/08 09:43:09;;;;;;;12.10;3.78;;;9.00;99.90;;;;;;6253835;22;20018;-83
2021/12/08 09:45:39;;;;;;;12.02;2.92;;;7.20;99.90;;;;;;6251317;22;20395;-82
2021/12/08 09:48:08;;;;;;;10.73;3.28;;;7.60;99.90;;;;;;6253613;22;20634;-81
2021/12/08 09:50:34;;;;;;;8.98;3.65;;;7.70;99.90;;;;;;6279746;22;20022;-81
2021/12/08 09:53:01;;;;;;;11.02;3.35;;;7.80;99.90;;;;;;6279744;22;20487;-83
2021/12/08 09:55:27;;;;;;;12.40;4.10;;;7.80;99.90;;;;;;6280213;22;20011;-82
2021/12/08 09:57:53;;;;;;;6.03;2.67;;;9.90;99.90;;;;;;6280337;22;20377;-83
2021/12/08 10:00:24;;;;;;;9.40;3.25;;;9.00;99.90;;;;;;6280350;22;20019;-81
2021/12/08 10:02:57;;;;;;;145.05;9.50;;;7.60;99.90;;;;;;6279873;22;20161;-84
2021/12/08 10:05:25;;;;;;;13.38;3.28;;;7.60;99.90;;;;;;6279769;22;20026;-81
2021/12/08 10:07:52;;;;;;;11.90;3.40;;;7.50;99.90;;;;;;6279015;22;20016;-81
2021/12/08 10:10:18;;;;;;;13.32;3.70;;;7.80;99.90;;;;;;6278383;22;20023;-81
2021/12/08 10:12:44;;;;;;;9.50;3.72;;;7.90;99.90;;;;;;6280043;22;20321;-82
2021/12/08 10:15:14;;;;;;;9.65;3.15;;;9.30;99.90;;;;;;6279737;22;20076;-81
2021/12/08 10:17:40;;;;;;;9.13;3.28;;;8.20;99.90;;;;;;6279340;22;20047;-82
2021/12/08 10:20:16;;;;;;;8.68;2.97;;;8.10;99.90;;;;;;6278458;22;20071;-82
2021/12/08 10:22:44;;;;;;;15.55;3.10;;;8.20;99.90;;;;;;6254143;22;20430;-84
2021/12/08 10:25:16;;;;;;;10.55;3.35;;;9.00;99.90;;;;;;6279742;22;20358;-82
2021/12/08 10:28:07;;;;;;;8.40;2.95;;;8.10;99.90;;;;;;6305583;22;20018;-82
2021/12/08 10:30:48;;;;;;;4.18;2.47;;;8.20;99.90;;;;;;6279014;22;20011;-82
2021/12/08 10:33:45;;;;;;;5.95;2.50;;;8.20;99.90;;;;;;6279304;22;20022;-82
2021/12/08 10:36:32;;;;;;;;;;;8.20;99.90;;;;;;6279920;22;20098;-85
2021/12/08 10:38:58;;;;;;;4.65;2.20;;;9.70;99.90;;;;;;6280055;22;19921;-84
2021/12/08 10:41:24;;;;;;;9.73;2.90;;;8.70;99.90;;;;;;6278905;22;20102;-84
2021/12/08 10:43:59;;;;;;;8.13;2.20;;;8.10;99.90;;;;;;6278565;22;20077;-84
2021/12/08 10:46:34;;;;;;;7.82;2.70;;;8.10;99.90;;;;;;6253475;22;20114;-83
2021/12/08 10:49:27;;;;;;;4.68;2.28;;;8.10;99.90;;;;;;6305164;22;20026;-82
2021/12/08 10:54:38;;;;;;;8.73;2.67;;;9.60;99.90;;;;;;6277924;22;20405;-82
2021/12/08 10:57:24;;;;;;;8.57;3.30;;;8.10;99.90;;;;;;6278441;22;20022;-83
2021/12/08 10:59:55;;;;;;;7.35;3.00;;;8.10;99.90;;;;;;6278320;22;20027;-84
2021/12/08 11:02:52;;;;;;;7.00;2.50;;;8.20;99.90;;;;;;6253529;22;20385;-82
2021/12/08 11:05:24;;;;;;;4.97;2.72;;;8.20;99.90;;;;;;6279048;22;20019;-82
2021/12/08 11:07:59;;;;;;;6.35;2.30;;;8.20;99.90;;;;;;6279637;22;20018;-81
2021/12/08 11:10:25;;;;;;;10.52;2.90;;;8.20;99.90;;;;;;6279157;22;20015;-82
2021/12/08 11:12:54;;;;;;;10.07;3.10;;;8.20;99.90;;;;;;6278706;22;20364;-82
2021/12/08 11:15:22;;;;;;;9.27;3.00;;;8.20;99.90;;;;;;6279246;22;20022;-84
2021/12/08 11:18:06;;;;;;;7.95;2.92;;;8.20;99.90;;;;;;6254141;22;20012;-83
2021/12/08 11:20:33;;;;;;;9.35;3.10;;;9.90;99.90;;;;;;6279413;22;20011;-82
2021/12/08 11:23:03;;;;;;;7.40;3.08;;;10.50;99.90;;;;;;6279540;22;20019;-83
2021/12/08 11:25:39;;;;;;;9.82;2.45;;;8.10;99.90;;;;;;6279405;22;20011;-82
2021/12/08 11:28:21;;;;;;;6.97;3.10;;;8.10;99.90;;;;;;6278985;22;20047;-83
2021/12/08 11:30:48;;;;;;;6.35;3.00;;;9.40;99.90;;;;;;6253653;22;20076;-82
2021/12/08 11:33:18;;;;;;;8.02;3.40;;;9.30;99.90;;;;;;6275518;22;20022;-83
2021/12/08 11:35:45;;;;;;;9.00;3.78;;;8.10;99.90;;;;;;6276603;22;20072;-82
2021/12/08 11:38:12;;;;;;;7.70;3.20;;;8.60;99.90;;;;;;6275258;22;20028;-82
2021/12/08 11:40:38;;;;;;;9.23;3.50;;;8.20;99.90;;;;;;6275912;22;20050;-82
2021/12/08 11:43:13;;;;;;;10.95;3.90;;;8.80;99.90;;;;;;6250871;22;20015;-83
2021/12/08 11:45:40;;;;;;;9.07;3.53;;;8.00;99.90;;;;;;6276461;22;20051;-82
2021/12/08 11:48:22;;;;;;;7.05;3.67;;;8.10;99.90;;;;;;6276284;22;20354;-83
2021/12/08 11:51:05;;;;;;;6.97;3.70;;;8.10;99.90;;;;;;6276628;22;20054;-82
2021/12/08 11:53:31;;;;;;;7.03;3.60;;;8.10;99.90;;;;;;6276608;22;20313;-83
2021/12/08 11:55:58;;;;;;;6.97;3.25;;;8.80;99.90;;;;;;6277062;22;20449;-83
2021/12/08 11:58:24;;;;;;;7.60;3.03;;;8.00;99.90;;;;;;6276398;22;20039;-82
2021/12/08 12:00:52;;;;;;;12.85;3.50;;;8.10;99.90;;;;;;6276627;22;20401;-83
2021/12/08 12:03:19;;;;;;;8.85;3.83;;;8.10;99.90;;;;;;6274893;22;20459;-83
2021/12/08 12:05:47;;;;;;;6.55;3.60;;;9.80;99.90;;;;;;6251623;22;20046;-82
2021/12/08 12:08:16;;;;;;;8.48;3.65;;;8.00;99.90;;;;;;6276686;22;20094;-82
2021/12/08 12:10:46;;;;;;;7.55;2.88;;;8.30;99.90;;;;;;6274461;22;20017;-83
2021/12/08 12:13:12;;;;;;;10.52;4.00;;;7.80;99.90;;;;;;6275678;22;20453;-83
2021/12/08 12:15:42;;;;;;;7.60;3.80;;;8.90;99.90;;;;;;6276731;22;20011;-82
2021/12/08 12:18:08;;;;;;;6.18;3.95;;;8.00;99.90;;;;;;6277995;22;20291;-82
2021/12/08 12:20:40;;;;;;;6.32;3.00;;;7.80;99.90;;;;;;6279204;22;20042;-86
2021/12/08 12:23:27;;;;;;;5.20;3.20;;;8.80;99.90;;;;;;6278901;22;20027;-89
2021/12/08 12:26:11;;;;;;;7.43;3.28;;;7.80;99.90;;;;;;6251557;22;20015;-90
2021/12/08 12:28:47;;;;;;;4.32;2.67;;;7.80;99.90;;;;;;6250985;22;20341;-88
2021/12/08 12:31:21;;;;;;;9.98;3.03;;;7.80;99.90;;;;;;6276634;22;20019;-91
2021/12/08 12:33:49;;;;;;;10.43;3.75;;;7.70;99.90;;;;;;6253060;22;20106;-87
2021/12/08 12:36:21;;;;;;;7.00;3.00;;;9.40;99.90;;;;;;6278935;22;20012;-86
2021/12/08 12:38:47;;;;;;;6.25;3.00;;;8.00;99.90;;;;;;6279012;22;20354;-85
2021/12/08 12:41:26;;;;;;;4.18;2.58;;;7.90;99.90;;;;;;6279734;22;20038;-87
2021/12/08 12:44:19;;;;;;;5.80;3.05;;;7.90;99.90;;;;;;6279575;22;20019;-88
2021/12/08 12:47:04;;;;;;;8.18;3.83;;;7.70;99.90;;;;;;6254786;22;20038;-88
2021/12/08 12:49:30;;;;;;;6.32;3.20;;;7.70;99.90;;;;;;6255216;22;20349;-87
2021/12/08 12:52:02;;;;;;;5.82;2.95;;;7.70;99.90;;;;;;6281294;22;20019;-90
2021/12/08 12:54:28;;;;;;;5.60;3.15;;;8.70;99.90;;;;;;6255826;22;20007;-85
2021/12/08 12:56:55;;;;;;;7.45;3.38;;;9.00;99.90;;;;;;6281147;22;20481;-85
2021/12/08 12:59:27;;;;;;;5.32;3.25;;;7.60;99.90;;;;;;6279486;22;20303;-83
2021/12/08 13:02:06;;;;;;;6.85;2.92;;;7.60;99.90;;;;;;6280813;22;20116;-87
2021/12/08 13:04:35;;;;;;;10.95;3.13;;;8.50;99.90;;;;;;6280484;22;20295;-90
2021/12/08 13:07:07;;;;;;;7.32;3.88;;;9.40;99.90;;;;;;6280375;22;20100;-88
2021/12/08 13:09:35;;;;;;;5.53;3.22;;;9.00;99.90;;;;;;6255281;22;20019;-86
2021/12/08 13:12:09;;;;;;;3.65;2.53;;;7.30;99.90;;;;;;6254375;22;20015;-84
2021/12/08 13:14:36;;;;;;;3.33;2.63;;;7.30;99.90;;;;;;6254568;22;20042;-84
2021/12/08 13:17:08;;;;;;;5.03;2.47;;;7.40;99.90;;;;;;6279809;22;20026;-86
2021/12/08 13:20:03;;;;;;;9.25;2.70;;;9.60;99.90;;;;;;6307898;22;20022;-86
2021/12/08 13:22:44;;;;;;;5.68;3.13;;;8.20;99.90;;;;;;6306057;22;20019;-87
2021/12/08 13:25:23;;;;;;;4.47;2.55;;;8.20;99.90;;;;;;6279514;22;20068;-87
2021/12/08 13:27:55;;;;;;;3.78;2.70;;;8.20;99.90;;;;;;6280129;22;20022;-87
2021/12/08 13:30:21;;;;;;;4.65;3.00;;;7.30;99.90;;;;;;6280242;22;20015;-87
2021/12/08 13:32:56;;;;;;;5.40;2.95;;;7.20;99.90;;;;;;6280078;22;20022;-86
2021/12/08 13:35:35;;;;;;;4.25;2.85;;;7.70;99.90;;;;;;6279218;22;20029;-84
2021/12/08 13:38:01;;;;;;;3.65;2.90;;;7.40;99.90;;;;;;6254128;22;20015;-83
2021/12/08 13:40:43;;;;;;;6.28;2.92;;;9.30;99.90;;;;;;6279669;22;20073;-87
2021/12/08 13:43:10;;;;;;;11.77;2.92;;;8.90;99.90;;;;;;6279253;22;20019;-86
2021/12/08 13:45:42;;;;;;;7.80;2.85;;;7.80;99.90;;;;;;6278983;22;20023;-85
2021/12/08 13:48:08;;;;;;;4.43;3.03;;;7.00;99.90;;;;;;6253675;22;20101;-86
2021/12/08 13:50:35;;;;;;;5.90;2.70;;;8.90;99.90;;;;;;6279837;22;20055;-85
2021/12/08 13:53:06;;;;;;;4.45;3.00;;;9.10;99.90;;;;;;6278848;22;20051;-87